Time;durP1;ratioP1;P1;durP2;ratioP2;P2;SDS_P1;SDS_P2;PMS_P1;PMS_P2;Temp;Humidity;BMP_temperature;BMP_pressure;BME280_temperature;BME280_humidity;BME280_pressure;Samples;Min_cycle;Max_cycle;Signal;HPM_P1;HPM_P2
2022/07/03 00:01:17;;;;;;;6.88;3.63;;;;;;;13.83;100.00;95812.31;5032954;28;20068;-79
2022/07/03 00:03:42;;;;;;;6.50;4.03;;;;;;;13.68;100.00;95814.06;5015565;28;20504;-78
2022/07/03 00:06:08;;;;;;;6.50;3.80;;;;;;;13.61;100.00;95816.25;5024818;28;20555;-79
2022/07/03 00:08:33;;;;;;;9.80;4.05;;;;;;;13.69;100.00;95818.28;5032968;28;20049;-78
2022/07/03 00:10:59;;;;;;;8.73;4.05;;;;;;;13.78;100.00;95815.81;5031919;28;20487;-78
2022/07/03 00:13:24;;;;;;;8.15;3.70;;;;;;;13.77;100.00;95808.16;5015316;28;20509;-78
2022/07/03 00:15:50;;;;;;;8.10;4.45;;;;;;;13.82;100.00;95805.44;5033296;28;20049;-78
2022/07/03 00:18:15;;;;;;;5.70;3.65;;;;;;;13.76;100.00;95807.34;5030503;28;20041;-78
2022/07/03 00:20:45;;;;;;;8.63;3.72;;;;;;;13.78;100.00;95812.38;5029924;28;20049;-78
2022/07/03 00:23:15;;;;;;;7.55;4.30;;;;;;;13.92;100.00;95810.63;5022022;28;20060;-78
2022/07/03 00:25:41;;;;;;;8.48;4.05;;;;;;;13.88;100.00;95809.63;5031788;28;20052;-80
2022/07/03 00:28:08;;;;;;;6.00;3.70;;;;;;;13.88;100.00;95809.63;5025783;28;20052;-81
2022/07/03 00:30:34;;;;;;;8.15;4.20;;;;;;;13.93;100.00;95811.41;5025957;28;20414;-79
2022/07/03 00:33:04;;;;;;;9.07;4.03;;;;;;;13.83;100.00;95801.72;5019806;28;20096;-79
2022/07/03 00:35:32;;;;;;;9.35;5.20;;;;;;;13.88;100.00;95799.03;5029964;28;20053;-80
2022/07/03 00:37:58;;;;;;;7.22;4.10;;;;;;;13.97;100.00;95801.84;5030752;28;20060;-78
2022/07/03 00:40:24;;;;;;;8.50;4.40;;;;;;;13.96;100.00;95811.63;5025162;28;20045;-80
2022/07/03 00:42:51;;;;;;;7.20;4.25;;;;;;;14.03;100.00;95806.75;5031585;28;20044;-80
2022/07/03 00:45:19;;;;;;;7.57;4.00;;;;;;;14.07;100.00;95800.94;5014016;28;20046;-79
2022/07/03 00:47:45;;;;;;;9.05;4.40;;;;;;;14.09;100.00;95809.34;5014663;28;20458;-79
2022/07/03 00:50:10;;;;;;;8.38;3.88;;;;;;;14.12;100.00;95808.78;5020253;28;20126;-80
2022/07/03 00:52:38;;;;;;;7.35;3.90;;;;;;;14.20;100.00;95805.50;5032667;28;20042;-80
2022/07/03 00:55:08;;;;;;;9.40;4.43;;;;;;;14.32;100.00;95803.25;5031847;28;20080;-79
2022/07/03 00:57:42;;;;;;;6.00;3.97;;;;;;;14.34;100.00;95801.09;5031408;28;20057;-79
2022/07/03 01:00:08;;;;;;;6.68;4.00;;;;;;;14.33;100.00;95807.44;5025301;28;20038;-79
2022/07/03 01:02:42;;;;;;;7.72;4.30;;;;;;;14.29;100.00;95798.50;5030875;28;20041;-79
2022/07/03 01:05:42;;;;;;;9.45;3.88;;;;;;;14.36;100.00;95798.94;5006022;28;20072;-79
2022/07/03 01:08:24;;;;;;;10.20;4.28;;;;;;;14.34;100.00;95801.09;5031269;28;20049;-79
2022/07/03 01:11:21;;;;;;;9.02;4.20;;;;;;;14.44;100.00;95804.66;5029889;28;20105;-79
2022/07/03 01:13:59;;;;;;;6.05;3.92;;;;;;;14.47;100.00;95804.09;5030009;28;20099;-79
2022/07/03 01:16:30;;;;;;;7.45;4.30;;;;;;;14.45;100.00;95793.00;5031225;28;20049;-79
2022/07/03 01:19:16;;;;;;;8.40;3.80;;;;;;;14.45;100.00;95795.66;5021400;28;20050;-79
2022/07/03 01:21:53;;;;;;;7.50;4.57;;;;;;;14.49;100.00;95791.34;5026446;28;20048;-79
2022/07/03 01:24:37;;;;;;;6.70;4.10;;;;;;;14.49;100.00;95796.66;5031703;28;20499;-80
2022/07/03 01:27:10;;;;;;;7.07;3.90;;;;;;;14.47;100.00;95793.50;5028969;28;20041;-80
2022/07/03 01:29:56;;;;;;;7.07;4.05;;;;;;;14.39;100.00;95789.63;5017690;28;20046;-79
2022/07/03 01:32:27;;;;;;;8.65;3.80;;;;;;;14.33;100.00;95794.22;5031222;28;20034;-79
2022/07/03 01:34:53;;;;;;;7.35;4.05;;;;;;;14.38;100.00;95780.91;5030726;28;20053;-79
2022/07/03 01:37:23;;;;;;;6.13;3.80;;;;;;;14.33;100.00;95780.97;5012398;28;20042;-78
2022/07/03 01:39:51;;;;;;;7.50;3.80;;;;;;;14.37;100.00;95784.63;5013006;28;20069;-79
2022/07/03 01:42:19;;;;;;;6.38;4.10;;;;;;;14.40;100.00;95793.09;5024273;28;20042;-80
2022/07/03 01:44:47;;;;;;;7.60;3.90;;;;;;;14.29;100.00;95787.91;5012114;28;20124;-78
2022/07/03 01:47:15;;;;;;;6.80;4.07;;;;;;;14.25;100.00;95792.22;5030968;28;20104;-79
2022/07/03 01:49:41;;;;;;;6.03;3.88;;;;;;;14.20;100.00;95789.63;5031685;28;20045;-79
2022/07/03 01:52:10;;;;;;;9.68;3.90;;;;;;;14.18;100.00;95791.78;5031331;28;20033;-77
2022/07/03 01:54:38;;;;;;;8.00;4.03;;;;;;;14.24;100.00;95790.63;5012947;28;20096;-79
2022/07/03 01:57:06;;;;;;;5.72;3.88;;;;;;;14.13;100.00;95778.59;5030202;28;20452;-78
2022/07/03 01:59:31;;;;;;;7.68;4.30;;;;;;;14.25;100.00;95781.63;5021470;28;20049;-79
2022/07/03 02:02:24;;;;;;;7.88;3.92;;;;;;;14.28;100.00;95783.72;5030639;28;20457;-79
2022/07/03 02:05:00;;;;;;;9.23;3.90;;;;;;;14.09;100.00;95788.19;5022742;28;20050;-79
2022/07/03 02:08:02;;;;;;;7.88;4.20;;;;;;;14.24;100.00;95790.63;5010698;28;20060;-79
2022/07/03 02:10:33;;;;;;;7.78;3.75;;;;;;;14.24;100.00;95788.00;5020671;28;20518;-79
2022/07/03 02:13:12;;;;;;;8.55;4.68;;;;;;;14.17;100.00;95790.22;5019371;28;20042;-79
2022/07/03 02:15:42;;;;;;;7.40;4.00;;;;;;;14.07;100.00;95790.34;5011950;28;20065;-80
2022/07/03 02:18:23;;;;;;;7.43;3.90;;;;;;;14.11;100.00;95788.72;5003321;28;20045;-79
2022/07/03 02:21:04;;;;;;;5.18;3.70;;;;;;;14.15;100.00;95781.75;5027106;28;20049;-79
2022/07/03 02:23:32;;;;;;;6.53;3.67;;;;;;;14.12;100.00;95798.19;5031289;28;20041;-81
2022/07/03 02:26:02;;;;;;;7.07;3.80;;;;;;;13.98;100.00;95798.91;5030120;28;20037;-79
2022/07/03 02:28:38;;;;;;;7.35;4.15;;;;;;;14.18;100.00;95797.84;5025943;28;20041;-79
2022/07/03 02:31:07;;;;;;;9.43;4.22;;;;;;;14.03;100.00;95790.88;5029966;28;20037;-79
2022/07/03 02:33:38;;;;;;;8.93;3.97;;;;;;;13.94;100.00;95786.53;5013096;28;20412;-78
2022/07/03 02:36:05;;;;;;;6.13;3.80;;;;;;;14.09;100.00;95788.19;5011637;28;20037;-78
2022/07/03 02:38:31;;;;;;;6.57;4.13;;;;;;;14.06;100.00;95783.47;5023545;28;20651;-80
2022/07/03 02:41:07;;;;;;;14.27;4.38;;;;;;;13.98;100.00;95787.53;5028119;28;20050;-80
2022/07/03 02:43:35;;;;;;;6.70;4.20;;;;;;;14.00;100.00;95794.09;5012916;28;20049;-81
2022/07/03 02:48:54;;;;;;;7.20;3.95;;;;;;;13.95;100.00;95794.19;5022632;28;20069;-81
2022/07/03 02:51:22;;;;;;;5.63;3.88;;;;;;;13.93;100.00;95806.13;5028175;28;20125;-81
2022/07/03 02:54:08;;;;;;;5.93;3.60;;;;;;;13.96;100.00;95801.03;5013108;28;20074;-81
2022/07/03 02:57:07;;;;;;;6.55;3.80;;;;;;;13.93;100.00;95803.47;4995508;28;20057;-79
2022/07/03 02:59:55;;;;;;;5.40;3.60;;;;;;;13.83;100.00;95807.00;5015796;28;20064;-80
2022/07/03 03:02:57;;;;;;;5.55;3.85;;;;;;;13.82;100.00;95806.25;5001103;28;20087;-80
2022/07/03 03:05:40;;;;;;;6.35;3.95;;;;;;;13.66;100.00;95808.28;5032889;28;20484;-79
2022/07/03 03:08:33;;;;;;;6.88;3.85;;;;;;;13.66;100.00;95818.03;5033721;28;20045;-78
2022/07/03 03:11:06;;;;;;;7.38;3.80;;;;;;;13.66;100.00;95821.50;5029304;28;20047;-78
2022/07/03 03:13:32;;;;;;;6.85;4.25;;;;;;;13.52;100.00;95820.59;5031559;28;20033;-77
2022/07/03 03:16:10;;;;;;;8.23;4.20;;;;;;;13.51;100.00;95821.66;5032389;28;20045;-79
2022/07/03 03:18:43;;;;;;;8.73;4.25;;;;;;;13.43;100.00;95814.31;5015191;28;20056;-79
2022/07/03 03:21:10;;;;;;;6.63;4.22;;;;;;;13.37;100.00;95820.72;5015194;28;20065;-79
2022/07/03 03:23:43;;;;;;;7.15;4.22;;;;;;;13.24;100.00;95817.63;5032997;28;20049;-79
2022/07/03 03:26:11;;;;;;;6.13;4.20;;;;;;;13.25;100.00;95819.22;5015262;28;20052;-80
2022/07/03 03:28:36;;;;;;;7.38;4.28;;;;;;;13.16;100.00;95818.25;5031513;28;20471;-79
2022/07/03 03:31:06;;;;;;;6.53;4.40;;;;;;;13.24;100.00;95820.28;5015563;28;20064;-80
2022/07/03 03:33:33;;;;;;;5.80;4.20;;;;;;;13.28;100.00;95823.16;5032987;28;20802;-79
2022/07/03 03:35:58;;;;;;;6.47;4.32;;;;;;;13.22;100.00;95825.06;5032777;28;20045;-80
2022/07/03 03:38:24;;;;;;;6.43;4.18;;;;;;;13.21;100.00;95818.19;5027047;28;20091;-81
2022/07/03 03:40:50;;;;;;;7.85;4.40;;;;;;;13.26;100.00;95823.44;5023292;28;20046;-80
2022/07/03 03:43:15;;;;;;;11.98;4.40;;;;;;;13.25;100.00;95832.44;5011224;28;20091;-77
2022/07/03 03:45:40;;;;;;;6.75;4.30;;;;;;;13.35;100.00;95823.66;5032026;28;20041;-78
2022/07/03 03:48:06;;;;;;;7.35;4.10;;;;;;;13.43;100.00;95824.88;5006056;28;20076;-79
2022/07/03 03:50:32;;;;;;;6.88;4.47;;;;;;;13.46;100.00;95821.69;5033051;28;20537;-79
2022/07/03 03:53:00;;;;;;;6.72;4.35;;;;;;;13.43;100.00;95820.41;5014368;28;20411;-79
2022/07/03 03:55:26;;;;;;;8.07;4.32;;;;;;;13.36;100.00;95824.44;5028720;28;20060;-79
2022/07/03 03:57:51;;;;;;;7.00;4.40;;;;;;;13.38;100.00;95827.59;5028936;28;20037;-79
2022/07/03 04:00:17;;;;;;;9.07;4.45;;;;;;;13.38;100.00;95833.66;5014745;28;20041;-77
2022/07/03 04:02:42;;;;;;;7.50;4.35;;;;;;;13.36;100.00;95840.28;5032325;28;20042;-79
2022/07/03 04:05:08;;;;;;;6.97;4.43;;;;;;;13.37;100.00;95844.50;5031787;28;20045;-80
2022/07/03 04:07:34;;;;;;;8.98;4.57;;;;;;;13.31;100.00;95839.22;5032355;28;20041;-79
2022/07/03 04:09:59;;;;;;;10.98;4.82;;;;;;;13.37;100.00;95847.94;5010632;28;20037;-79
2022/07/03 04:12:25;;;;;;;7.88;4.63;;;;;;;13.34;100.00;95846.63;5014312;28;20037;-78
2022/07/03 04:14:50;;;;;;;6.15;4.47;;;;;;;13.29;100.00;95851.94;5031142;28;20581;-80
2022/07/03 04:17:17;;;;;;;6.38;4.50;;;;;;;13.30;100.00;95842.97;5028689;28;20037;-80
2022/07/03 04:19:42;;;;;;;6.72;4.45;;;;;;;13.30;100.00;95842.16;5032370;28;20411;-80
2022/07/03 04:22:08;;;;;;;10.02;4.75;;;;;;;13.34;100.00;95849.28;5032079;28;20038;-79
2022/07/03 04:24:35;;;;;;;9.60;4.85;;;;;;;13.44;100.00;95847.63;5012449;28;20440;-78
2022/07/03 04:27:01;;;;;;;8.20;4.80;;;;;;;13.40;100.00;95849.25;5010492;28;20041;-79
2022/07/03 04:29:26;;;;;;;7.88;4.80;;;;;;;13.47;100.00;95852.34;5031453;28;20124;-78
2022/07/03 04:31:52;;;;;;;11.18;4.60;;;;;;;13.68;100.00;95848.44;5031194;28;20411;-79
2022/07/03 04:34:17;;;;;;;8.02;4.90;;;;;;;13.82;100.00;95848.56;5030933;28;20044;-80
2022/07/03 04:36:42;;;;;;;8.38;4.90;;;;;;;13.81;100.00;95854.13;5009241;28;20065;-79
2022/07/03 04:39:08;;;;;;;7.30;4.80;;;;;;;13.81;100.00;95846.97;5013261;28;20574;-79
2022/07/03 04:41:33;;;;;;;7.65;4.50;;;;;;;13.87;100.00;95855.66;5027731;28;20049;-78
2022/07/03 04:43:59;;;;;;;8.85;5.05;;;;;;;13.88;100.00;95851.94;5031475;28;20522;-79
2022/07/03 04:46:24;;;;;;;6.65;4.30;;;;;;;13.96;100.00;95856.59;5012705;28;20733;-77
2022/07/03 04:48:50;;;;;;;6.88;4.68;;;;;;;13.99;100.00;95858.69;5019901;28;20045;-77
2022/07/03 04:51:15;;;;;;;6.65;4.65;;;;;;;14.11;100.00;95865.44;5021366;28;20038;-78
2022/07/03 04:53:41;;;;;;;8.38;5.00;;;;;;;14.13;100.00;95858.00;5028954;28;20049;-81
2022/07/03 04:56:06;;;;;;;6.72;4.28;;;;;;;14.21;100.00;95865.31;5013822;28;20526;-79
2022/07/03 04:58:32;;;;;;;8.57;4.82;;;;;;;14.22;100.00;95856.28;5031341;28;20039;-78
2022/07/03 05:00:57;;;;;;;8.65;4.88;;;;;;;14.28;100.00;95863.13;5030254;28;20061;-79
2022/07/03 05:03:23;;;;;;;7.57;4.90;;;;;;;14.68;100.00;95863.69;5032268;28;20124;-79
2022/07/03 05:05:48;;;;;;;7.55;4.50;;;;;;;14.82;100.00;95873.56;5013455;28;20045;-79
2022/07/03 05:08:14;;;;;;;7.40;5.20;;;;;;;14.77;100.00;95861.19;5032045;28;20051;-78
2022/07/03 05:10:40;;;;;;;7.63;4.70;;;;;;;14.91;100.00;95871.81;5026749;28;20048;-79
2022/07/03 05:13:05;;;;;;;10.48;4.70;;;;;;;15.12;100.00;95871.53;5014482;28;20245;-79
2022/07/03 05:15:31;;;;;;;13.40;4.88;;;;;;;15.27;100.00;95863.34;5030949;28;20048;-80
2022/07/03 05:17:56;;;;;;;7.93;4.82;;;;;;;15.59;100.00;95869.69;5032726;28;20046;-80
2022/07/03 05:20:24;;;;;;;9.23;5.35;;;;;;;15.72;100.00;95863.59;5000872;28;20065;-80
2022/07/03 05:23:01;;;;;;;6.95;4.40;;;;;;;15.99;100.00;95866.59;5014773;28;20053;-80
2022/07/03 05:25:28;;;;;;;6.50;4.45;;;;;;;16.06;100.00;95867.78;5023180;28;20038;-80
2022/07/03 05:27:55;;;;;;;8.35;4.90;;;;;;;16.39;100.00;95875.63;5025072;28;20103;-80
2022/07/03 05:30:25;;;;;;;6.60;4.45;;;;;;;16.78;100.00;95876.94;5030451;28;20042;-78
2022/07/03 05:32:52;;;;;;;6.15;4.45;;;;;;;16.86;100.00;95866.66;5014807;28;20087;-81
2022/07/03 05:35:18;;;;;;;6.82;4.35;;;;;;;16.77;100.00;95869.25;5027054;28;20095;-81
2022/07/03 05:37:43;;;;;;;7.60;4.10;;;;;;;17.21;100.00;95874.91;5032614;28;20045;-79
2022/07/03 05:40:09;;;;;;;6.53;4.45;;;;;;;17.42;100.00;95867.25;5012222;28;20434;-79
2022/07/03 05:42:35;;;;;;;6.85;4.63;;;;;;;17.43;100.00;95869.59;5031419;28;20041;-79
2022/07/03 05:45:01;;;;;;;7.35;4.22;;;;;;;17.61;100.00;95869.69;5013637;28;20037;-80
2022/07/03 05:47:27;;;;;;;6.57;4.60;;;;;;;17.56;100.00;95867.19;5011677;28;20049;-79
2022/07/03 05:49:53;;;;;;;10.20;4.32;;;;;;;17.61;100.00;95867.03;5013417;28;20534;-80
2022/07/03 05:52:18;;;;;;;6.40;4.45;;;;;;;17.75;100.00;95870.38;5031952;28;20049;-79
2022/07/03 05:54:44;;;;;;;6.15;4.45;;;;;;;17.96;100.00;95869.88;5032245;28;20048;-80
2022/07/03 05:57:10;;;;;;;6.53;4.32;;;;;;;18.04;100.00;95877.09;5012998;28;20044;-78
2022/07/03 05:59:35;;;;;;;6.32;4.25;;;;;;;18.15;100.00;95873.06;5028924;28;20037;-78
2022/07/03 06:02:01;;;;;;;5.75;4.00;;;;;;;18.33;100.00;95865.13;5010838;28;20084;-80
2022/07/03 06:04:26;;;;;;;7.32;4.20;;;;;;;18.33;100.00;95875.78;5029966;28;20038;-79
2022/07/03 06:06:54;;;;;;;7.13;4.32;;;;;;;18.16;100.00;95871.22;5012851;28;20038;-79
2022/07/03 06:09:19;;;;;;;5.47;4.00;;;;;;;18.29;100.00;95872.19;5010652;28;20060;-79
2022/07/03 06:11:45;;;;;;;6.97;4.07;;;;;;;18.60;100.00;95871.28;5022216;28;20754;-77
2022/07/03 06:14:10;;;;;;;6.38;3.80;;;;;;;18.67;100.00;95876.94;5028661;28;20624;-78
2022/07/03 06:16:36;;;;;;;5.40;3.75;;;;;;;18.58;100.00;95878.81;5029132;28;20120;-79
2022/07/03 06:19:01;;;;;;;5.95;3.83;;;;;;;18.79;100.00;95885.13;5028368;28;20411;-78
2022/07/03 06:21:27;;;;;;;5.28;4.15;;;;;;;18.89;100.00;95877.94;5022255;28;20457;-77
2022/07/03 06:23:52;;;;;;;7.22;4.10;;;;;;;19.02;100.00;95879.66;5012848;28;20414;-79
2022/07/03 06:26:18;;;;;;;5.65;4.00;;;;;;;18.89;100.00;95877.94;5015651;28;20113;-79
2022/07/03 06:28:43;;;;;;;6.30;3.97;;;;;;;19.11;100.00;95875.09;5011042;28;20044;-78
2022/07/03 06:31:09;;;;;;;7.55;4.00;;;;;;;19.34;99.62;95873.03;5012424;28;20491;-79
2022/07/03 06:33:34;;;;;;;5.93;4.00;;;;;;;19.66;98.31;95878.16;5028468;28;20148;-79
2022/07/03 06:36:00;;;;;;;6.60;3.63;;;;;;;19.72;96.30;95871.53;5021728;28;20194;-79
2022/07/03 06:38:25;;;;;;;5.38;3.63;;;;;;;19.64;96.29;95869.66;5027412;28;20049;-79
2022/07/03 06:40:51;;;;;;;6.32;3.80;;;;;;;19.88;95.95;95869.94;5025289;28;20077;-79
2022/07/03 06:43:17;;;;;;;5.53;3.65;;;;;;;20.11;95.36;95877.69;5029941;28;20491;-79
2022/07/03 06:45:42;;;;;;;5.05;3.63;;;;;;;20.37;93.71;95874.09;5028854;28;20037;-79
2022/07/03 06:48:08;;;;;;;8.25;3.40;;;;;;;20.42;91.38;95873.94;5007052;28;20129;-78
2022/07/03 06:50:34;;;;;;;5.82;3.78;;;;;;;20.56;91.06;95882.50;5026195;28;20348;-79
2022/07/03 06:53:00;;;;;;;6.85;3.58;;;;;;;20.59;90.69;95873.81;5028213;28;20487;-79
2022/07/03 06:55:26;;;;;;;17.50;3.58;;;;;;;20.36;90.56;95875.22;5010355;28;20107;-84
2022/07/03 06:57:52;;;;;;;5.45;3.55;;;;;;;20.59;87.46;95876.50;5009870;28;20042;-83
2022/07/03 07:00:17;;;;;;;7.22;3.33;;;;;;;20.82;85.29;95878.88;5009209;28;20038;-80
2022/07/03 07:02:43;;;;;;;4.32;3.00;;;;;;;20.99;82.98;95874.50;5028149;28;20127;-80
2022/07/03 07:05:08;;;;;;;6.40;3.30;;;;;;;20.94;81.99;95876.25;5026608;28;20041;-80
2022/07/03 07:07:34;;;;;;;4.03;3.15;;;;;;;21.03;81.28;95867.38;5009197;28;20041;-78
2022/07/03 07:09:59;;;;;;;5.50;3.10;;;;;;;21.42;78.17;95884.03;5009209;28;20033;-81
2022/07/03 07:12:25;;;;;;;5.30;3.17;;;;;;;21.11;79.06;95879.91;5028727;28;20496;-80
2022/07/03 07:14:51;;;;;;;5.10;3.72;;;;;;;21.05;79.17;95881.22;5009648;28;20041;-79
2022/07/03 07:17:16;;;;;;;5.13;3.20;;;;;;;21.00;78.97;95884.09;5010657;28;20102;-78
2022/07/03 07:19:42;;;;;;;5.90;3.50;;;;;;;21.03;82.54;95883.44;5025256;28;20053;-76
2022/07/03 07:22:07;;;;;;;6.47;3.45;;;;;;;21.20;81.67;95887.88;5010241;28;20037;-77
2022/07/03 07:24:33;;;;;;;5.97;3.40;;;;;;;20.98;82.71;95870.28;5010712;28;20119;-78
2022/07/03 07:26:58;;;;;;;4.95;3.60;;;;;;;21.36;80.84;95875.41;5008893;28;20491;-82
2022/07/03 07:29:24;;;;;;;5.25;3.50;;;;;;;21.50;79.66;95880.50;5009679;28;20055;-81
2022/07/03 07:31:49;;;;;;;4.90;3.40;;;;;;;21.41;78.51;95877.13;5027232;28;20061;-77
2022/07/03 07:34:15;;;;;;;4.95;3.20;;;;;;;21.35;79.42;95878.44;5008859;28;20041;-81
2022/07/03 07:36:40;;;;;;;6.28;3.70;;;;;;;21.62;77.12;95877.88;5021352;28;20624;-81
2022/07/03 07:39:06;;;;;;;4.30;3.22;;;;;;;21.66;76.26;95882.56;5028679;28;20526;-80
2022/07/03 07:41:31;;;;;;;5.60;3.47;;;;;;;21.76;74.96;95877.56;5026203;28;20038;-80
2022/07/03 07:43:57;;;;;;;5.85;3.00;;;;;;;21.72;73.39;95875.88;5028587;28;20041;-80
2022/07/03 07:46:23;;;;;;;4.10;3.10;;;;;;;21.77;71.45;95878.34;5028194;28;21971;-81
2022/07/03 07:48:48;;;;;;;5.25;3.25;;;;;;;21.76;71.77;95882.16;5020818;28;20129;-78
2022/07/03 07:51:14;;;;;;;5.10;3.10;;;;;;;21.70;73.32;95873.53;5028396;28;20163;-81
2022/07/03 07:53:39;;;;;;;3.90;3.05;;;;;;;21.73;72.48;95872.09;5031196;28;20056;-77
2022/07/03 07:56:05;;;;;;;4.30;3.10;;;;;;;22.24;69.09;95874.47;5014102;28;20048;-81
2022/07/03 07:58:30;;;;;;;6.18;3.33;;;;;;;22.19;70.12;95878.16;5026875;28;20482;-83
2022/07/03 08:06:23;;;;;;;7.32;3.20;;;;;;;22.05;72.76;95872.34;5031189;28;20427;-81
2022/07/03 08:08:49;;;;;;;3.92;3.00;;;;;;;21.99;73.36;95871.78;5024205;28;20041;-81
2022/07/03 08:11:14;;;;;;;5.80;3.38;;;;;;;22.02;71.03;95873.03;5011491;28;20496;-81
2022/07/03 08:13:40;;;;;;;6.53;3.47;;;;;;;22.10;70.77;95869.47;5011887;28;20041;-80
2022/07/03 08:16:05;;;;;;;6.72;3.30;;;;;;;22.21;71.94;95867.91;5030755;28;20049;-81
2022/07/03 08:18:31;;;;;;;4.03;3.10;;;;;;;22.07;73.44;95875.50;5011061;28;20041;-81
2022/07/03 08:20:57;;;;;;;4.28;2.90;;;;;;;22.43;69.35;95871.25;5028008;28;20411;-83
2022/07/03 08:23:22;;;;;;;4.63;3.28;;;;;;;22.45;68.88;95869.00;5031363;28;20095;-83
2022/07/03 08:25:48;;;;;;;4.25;2.78;;;;;;;22.70;64.31;95871.66;5030503;28;20033;-80
2022/07/03 08:28:13;;;;;;;4.45;3.22;;;;;;;22.67;67.72;95865.84;5013257;28;20531;-82
2022/07/03 08:30:39;;;;;;;5.95;2.80;;;;;;;22.63;67.04;95870.34;5019545;28;20042;-81
2022/07/03 08:33:04;;;;;;;4.20;3.15;;;;;;;22.84;63.94;95866.69;5011989;28;20569;-83
2022/07/03 08:35:30;;;;;;;3.45;2.92;;;;;;;23.21;62.79;95861.22;5012836;28;20427;-81
2022/07/03 08:37:55;;;;;;;5.07;2.70;;;;;;;23.29;63.98;95863.00;5010956;28;20099;-82
2022/07/03 08:40:21;;;;;;;4.18;3.03;;;;;;;23.16;64.32;95858.81;5011023;28;20099;-85
2022/07/03 08:42:53;;;;;;;3.47;2.65;;;;;;;23.01;63.77;95852.22;5013348;28;20037;-83
2022/07/03 08:45:20;;;;;;;5.13;3.10;;;;;;;22.96;64.79;95858.63;5012087;28;20124;-80
2022/07/03 08:47:47;;;;;;;3.22;2.50;;;;;;;22.92;62.58;95860.41;5029102;28;20041;-81
2022/07/03 08:50:15;;;;;;;5.07;2.60;;;;;;;23.10;60.17;95860.13;5030225;28;20052;-82
2022/07/03 08:52:41;;;;;;;3.70;2.72;;;;;;;23.19;60.73;95863.50;5030577;28;20499;-82
2022/07/03 08:55:09;;;;;;;3.47;2.58;;;;;;;23.18;61.98;95864.59;5029150;28;20085;-83
2022/07/03 08:57:40;;;;;;;4.32;2.60;;;;;;;23.47;59.01;95860.00;5031505;28;20048;-85
2022/07/03 09:00:09;;;;;;;4.70;2.85;;;;;;;23.39;63.01;95850.19;5030216;28;20090;-82
2022/07/03 09:02:34;;;;;;;4.00;2.70;;;;;;;23.39;60.67;95861.72;5011773;28;20042;-80
2022/07/03 09:05:02;;;;;;;6.32;2.60;;;;;;;23.52;61.23;95857.06;5028917;28;20923;-81
2022/07/03 09:07:31;;;;;;;4.47;2.50;;;;;;;23.63;61.28;95850.06;5029610;28;20069;-80
2022/07/03 09:09:56;;;;;;;3.83;2.75;;;;;;;23.78;58.77;95837.00;5026357;28;20091;-81
2022/07/03 09:12:22;;;;;;;3.47;2.60;;;;;;;23.73;59.41;95847.97;5029252;28;20042;-81
2022/07/03 09:14:48;;;;;;;3.50;2.70;;;;;;;23.53;59.55;95855.94;5030453;28;20121;-81
2022/07/03 09:17:14;;;;;;;3.63;2.53;;;;;;;23.84;57.79;95851.72;5029656;28;20116;-80
2022/07/03 09:19:46;;;;;;;5.72;2.78;;;;;;;24.19;58.01;95848.34;5027293;28;20034;-79
2022/07/03 09:22:25;;;;;;;3.03;2.45;;;;;;;24.36;58.53;95847.19;5026512;28;20492;-81
2022/07/03 09:24:52;;;;;;;2.80;2.20;;;;;;;24.21;50.36;95851.47;5017293;28;20483;-83
2022/07/03 09:27:20;;;;;;;3.63;2.47;;;;;;;24.18;56.78;95847.56;5027525;28;20403;-81
2022/07/03 09:30:00;;;;;;;3.38;2.38;;;;;;;24.20;53.20;95860.66;5011211;28;20107;-83
2022/07/03 09:32:31;;;;;;;2.72;2.17;;;;;;;24.31;50.59;95845.53;5012188;28;20056;-78
2022/07/03 09:35:17;;;;;;;3.47;2.40;;;;;;;24.33;53.63;95854.03;5028543;28;20052;-80
2022/07/03 09:37:58;;;;;;;2.65;2.00;;;;;;;24.62;49.62;95854.69;5022772;28;20749;-81
2022/07/03 09:40:45;;;;;;;3.17;2.08;;;;;;;24.56;51.40;95851.47;5025360;28;20129;-81
2022/07/03 09:43:10;;;;;;;3.25;1.90;;;;;;;24.52;50.36;95844.44;5000240;28;20050;-78
2022/07/03 09:45:55;;;;;;;3.28;2.10;;;;;;;24.60;49.49;95856.97;5030114;28;20064;-78
2022/07/03 09:48:35;;;;;;;2.55;2.10;;;;;;;24.59;48.58;95847.28;5029964;28;20045;-78
2022/07/03 09:51:28;;;;;;;3.67;2.35;;;;;;;24.64;48.44;95849.75;5022689;28;20045;-79
2022/07/03 09:53:59;;;;;;;3.67;2.30;;;;;;;24.67;49.95;95846.34;5027118;28;20053;-79
2022/07/03 09:56:38;;;;;;;4.18;1.90;;;;;;;24.94;45.86;95843.03;5012809;28;20056;-80
2022/07/03 09:59:12;;;;;;;4.70;2.50;;;;;;;24.86;50.03;95842.13;5023704;28;20041;-80
2022/07/03 10:01:43;;;;;;;6.22;3.28;;;;;;;25.23;43.93;95839.00;5009440;28;20125;-80
2022/07/03 10:04:22;;;;;;;4.35;1.95;;;;;;;25.01;44.87;95843.97;5027160;28;20045;-80
2022/07/03 10:06:55;;;;;;;3.53;1.90;;;;;;;25.11;43.67;95844.53;5029400;28;20096;-80
2022/07/03 10:09:23;;;;;;;2.78;1.95;;;;;;;25.48;44.15;95838.69;5013982;28;20045;-78
2022/07/03 10:11:49;;;;;;;2.60;1.80;;;;;;;25.65;41.57;95838.22;5013500;28;20647;-79
2022/07/03 10:14:17;;;;;;;2.63;1.60;;;;;;;25.66;42.01;95829.00;5029636;28;20122;-80
2022/07/03 10:16:44;;;;;;;2.33;1.70;;;;;;;25.99;42.38;95835.69;5021127;28;20045;-80
2022/07/03 10:19:21;;;;;;;1.92;1.73;;;;;;;25.99;40.36;95835.69;5026025;28;20038;-81
2022/07/03 10:21:56;;;;;;;2.42;1.80;;;;;;;26.07;39.13;95831.97;5006720;28;20041;-81
2022/07/03 10:24:23;;;;;;;2.05;1.70;;;;;;;26.13;39.66;95835.16;5019074;28;20046;-83
2022/07/03 10:26:50;;;;;;;5.10;1.60;;;;;;;26.26;38.93;95816.84;5014822;28;20115;-79
2022/07/03 10:29:16;;;;;;;1.95;1.50;;;;;;;26.31;39.20;95813.06;5010599;28;20060;-80
2022/07/03 10:31:48;;;;;;;2.10;1.70;;;;;;;26.57;37.80;95814.97;5029427;28;20120;-80
2022/07/03 10:34:23;;;;;;;2.30;1.60;;;;;;;26.88;37.30;95815.75;5030287;28;20048;-79
2022/07/03 10:37:00;;;;;;;1.70;1.60;;;;;;;27.41;37.52;95818.28;5020563;28;20095;-83
2022/07/03 10:39:47;;;;;;;1.65;1.50;;;;;;;27.41;36.38;95807.47;5023695;28;20125;-79
2022/07/03 10:45:12;;;;;;;1.95;1.50;;;;;;;27.36;35.42;95813.22;5023409;28;20049;-81
2022/07/03 10:47:50;;;;;;;1.98;1.58;;;;;;;27.53;34.63;95813.72;5011438;28;20041;-81
2022/07/03 10:50:21;;;;;;;2.03;1.50;;;;;;;27.56;36.85;95813.00;5011450;28;20114;-80
2022/07/03 10:52:46;;;;;;;2.22;1.60;;;;;;;27.54;34.46;95815.28;5011974;28;20580;-77
2022/07/03 10:55:14;;;;;;;1.98;1.60;;;;;;;27.60;34.45;95808.41;5022989;28;20087;-78
2022/07/03 10:57:41;;;;;;;2.60;1.60;;;;;;;27.94;36.88;95811.00;5029211;28;20042;-80
2022/07/03 11:00:15;;;;;;;1.60;1.48;;;;;;;28.06;33.82;95801.81;5012035;28;20046;-78
2022/07/03 11:02:47;;;;;;;2.42;1.60;;;;;;;28.12;35.61;95801.09;5017105;28;20049;-78
2022/07/03 11:05:14;;;;;;;3.38;1.58;;;;;;;28.63;35.26;95801.41;5028578;28;20112;-80
2022/07/03 11:07:44;;;;;;;2.03;1.60;;;;;;;29.19;32.55;95805.50;5026105;28;20048;-79
2022/07/03 11:10:10;;;;;;;1.92;1.45;;;;;;;29.68;29.75;95797.84;5019950;28;20041;-78
2022/07/03 11:13:00;;;;;;;2.90;2.08;;;;;;;29.81;29.90;95800.94;5029172;28;20034;-78
2022/07/03 11:15:31;;;;;;;1.50;1.40;;;;;;;29.96;29.01;95795.53;5028710;28;20124;-80
2022/07/03 11:18:17;;;;;;;1.70;1.40;;;;;;;30.31;27.35;95791.22;5007141;28;20442;-78
2022/07/03 11:20:42;;;;;;;1.50;1.40;;;;;;;30.34;27.34;95793.13;5029228;28;20076;-78
2022/07/03 11:23:26;;;;;;;1.88;1.50;;;;;;;30.48;28.30;95779.53;5028611;28;20038;-82
2022/07/03 11:25:53;;;;;;;2.63;1.52;;;;;;;30.67;27.14;95782.97;5013047;28;20499;-81
2022/07/03 11:28:31;;;;;;;2.13;1.60;;;;;;;30.97;28.07;95773.53;5010841;28;20042;-82
2022/07/03 11:31:16;;;;;;;1.60;1.42;;;;;;;31.07;27.43;95772.72;5016407;28;20472;-81
2022/07/03 11:33:50;;;;;;;1.60;1.50;;;;;;;31.36;27.25;95769.81;5015611;28;20046;-80
2022/07/03 11:36:16;;;;;;;2.00;1.40;;;;;;;31.25;28.36;95778.06;5029941;28;20049;-81
2022/07/03 11:39:05;;;;;;;1.95;1.45;;;;;;;31.26;26.18;95764.06;5015700;28;20041;-81
2022/07/03 11:41:34;;;;;;;1.75;1.50;;;;;;;31.25;26.47;95762.50;5018986;28;20062;-80
2022/07/03 11:44:03;;;;;;;1.95;1.50;;;;;;;31.14;26.82;95767.25;5016312;28;20463;-80
2022/07/03 11:46:31;;;;;;;1.75;1.25;;;;;;;31.78;25.97;95770.72;5033038;28;20044;-79
2022/07/03 11:49:07;;;;;;;3.22;2.45;;;;;;;32.08;26.01;95761.09;5032686;28;20037;-79
2022/07/03 11:51:34;;;;;;;1.65;1.55;;;;;;;32.13;26.44;95764.16;5034450;28;20049;-78